Terminal Aerodrome Forecast
Issued by NWS

Home | Current Version | Previous Version | Text Only | Print | Product List | Glossary On
Versions: 1 2 3 4 5 6 7 8 9 10 11 12 13 14
000
FTUS42 KTAE 231100
TAFDHN
TAF
KDHN 231133Z 2312/2412 10008KT 4SM -RA BR OVC005
     FM231500 16010G15KT 6SM -RA OVC007
     FM231800 18013G23KT 4SM TSRA BKN025CB
      TEMPO 2318/2321 VRB20G30KT 2SM +TSRA
     FM240000 20011KT P6SM OVC007=

USA.gov is the U.S. government's official web portal to all federal, state and local government web resources and services.